Time;durP1;ratioP1;P1;durP2;ratioP2;P2;SDS_P1;SDS_P2;PMS_P1;PMS_P2;Temp;Humidity;BMP_temperature;BMP_pressure;BME280_temperature;BME280_humidity;BME280_pressure;Samples;Min_cycle;Max_cycle;Signal;HPM_P1;HPM_P2
2023/01/28 00:00:53;;;;;;;;;;;77.70;2227.20;;;;;;5057801;28;20025;-77
2023/01/28 00:03:19;;;;;;;46.42;23.30;;;102.40;2227.20;;;;;;5064672;28;19979;-77
2023/01/28 00:05:45;;;;;;;;;;;102.40;2227.20;;;;;;5062982;28;20024;-76
2023/01/28 00:08:12;;;;;;;48.33;23.17;;;102.40;2227.20;;;;;;5048575;28;19908;-76
2023/01/28 00:10:38;;;;;;;53.15;25.42;;;77.70;2227.20;;;;;;5047771;28;20127;-76
2023/01/28 00:13:04;;;;;;;;;;;102.50;2227.20;;;;;;5068764;28;20080;-74
2023/01/28 00:15:30;;;;;;;53.35;23.98;;;102.50;2227.20;;;;;;5046518;28;19940;-76
2023/01/28 00:17:56;;;;;;;;;;;102.50;2227.20;;;;;;5067093;28;20068;-76
2023/01/28 00:20:21;;;;;;;52.30;24.00;;;102.60;2227.20;;;;;;5066085;28;20280;-76
2023/01/28 00:22:48;;;;;;;;;;;102.50;2227.20;;;;;;5050320;28;20490;-76
2023/01/28 00:25:14;;;;;;;55.65;23.15;;;102.50;2227.20;;;;;;5041382;28;19913;-75
2023/01/28 00:27:40;;;;;;;56.88;25.45;;;102.50;2227.20;;;;;;5043048;28;20060;-77
2023/01/28 00:30:06;;;;;;;;;;;102.50;2227.20;;;;;;5042379;28;20052;-76
2023/01/28 00:32:32;;;;;;;54.72;23.83;;;102.50;2227.20;;;;;;5051866;28;19999;-75
2023/01/28 00:34:57;;;;;;;;;;;102.40;2227.20;;;;;;5048067;28;20452;-75
2023/01/28 00:37:23;;;;;;;51.05;24.90;;;102.50;2227.20;;;;;;5042963;28;19995;-77
2023/01/28 00:39:49;;;;;;;;;;;102.50;2227.20;;;;;;5046075;28;20036;-77
2023/01/28 00:42:15;;;;;;;49.85;24.52;;;102.50;2227.20;;;;;;5040670;28;20457;-76
2023/01/28 00:44:41;;;;;;;57.30;25.85;;;102.50;2227.20;;;;;;5050918;28;20065;-76
2023/01/28 00:47:06;;;;;;;;;;;102.50;2227.20;;;;;;5046785;28;20067;-76
2023/01/28 00:49:32;;;;;;;60.20;27.52;;;102.50;2227.20;;;;;;5066678;28;19916;-75
2023/01/28 00:51:58;;;;;;;;;;;102.50;2227.20;;;;;;5044770;28;20540;-76
2023/01/28 00:54:23;;;;;;;52.08;26.08;;;102.50;2227.20;;;;;;5067252;28;20460;-76
2023/01/28 00:56:52;;;;;;;;;;;102.50;2227.20;;;;;;5064999;28;20029;-78
2023/01/28 00:59:18;;;;;;;52.85;23.50;;;102.50;2227.20;;;;;;5044280;28;20361;-78
2023/01/28 01:01:43;;;;;;;;;;;77.70;2227.20;;;;;;5045337;28;20112;-75
2023/01/28 01:04:09;;;;;;;55.10;25.45;;;102.50;2227.20;;;;;;5049913;28;19916;-76
2023/01/28 01:06:36;;;;;;;;;;;102.50;2227.20;;;;;;5040468;28;20029;-74
2023/01/28 01:09:07;;;;;;;40.90;17.73;;;102.60;2227.20;;;;;;5038260;28;20328;-75
2023/01/28 01:11:34;;;;;;;55.40;27.65;;;102.60;2227.20;;;;;;5041653;28;20032;-75
2023/01/28 01:14:00;;;;;;;52.45;25.55;;;102.70;2227.20;;;;;;5038206;28;20082;-76
2023/01/28 01:16:28;;;;;;;48.72;24.98;;;102.60;2227.20;;;;;;5063649;28;20021;-76
2023/01/28 01:18:55;;;;;;;48.97;24.90;;;102.60;2227.20;;;;;;5069258;28;20031;-76
2023/01/28 01:21:24;;;;;;;54.17;23.83;;;102.50;2227.20;;;;;;5055522;28;20115;-76
2023/01/28 01:23:51;;;;;;;49.33;24.77;;;102.60;2227.20;;;;;;5052876;28;20032;-76
2023/01/28 01:26:17;;;;;;;49.08;22.90;;;102.60;2227.20;;;;;;5055417;28;20029;-76
2023/01/28 01:28:43;;;;;;;56.03;26.23;;;102.50;2227.20;;;;;;5055655;28;20083;-76
2023/01/28 01:31:16;;;;;;;;;;;102.60;2227.20;;;;;;5042891;28;20036;-76
2023/01/28 01:33:44;;;;;;;49.35;23.27;;;102.60;2227.20;;;;;;5073215;28;19905;-76
2023/01/28 01:36:11;;;;;;;42.75;22.48;;;102.60;2227.20;;;;;;5048077;28;20025;-76
2023/01/28 01:38:37;;;;;;;50.97;24.80;;;102.50;2227.20;;;;;;5049311;28;20375;-76
2023/01/28 01:41:04;;;;;;;;;;;102.60;2227.20;;;;;;5056043;28;20162;-78
2023/01/28 01:43:57;;;;;;;41.40;20.77;;;102.60;2227.20;;;;;;5051389;28;20281;-75
2023/01/28 01:46:29;;;;;;;69.15;29.52;;;102.60;2227.20;;;;;;5037007;28;20021;-76
2023/01/28 01:48:59;;;;;;;55.40;28.02;;;102.60;2227.20;;;;;;5073086;28;20079;-75
2023/01/28 01:51:30;;;;;;;54.67;26.42;;;102.60;2227.20;;;;;;5072793;28;20032;-75
2023/01/28 01:53:57;;;;;;;51.00;24.10;;;102.60;2227.20;;;;;;5073044;28;20056;-73
2023/01/28 01:56:30;;;;;;;49.28;25.08;;;102.50;2227.20;;;;;;5054781;28;20478;-76
2023/01/28 01:58:57;;;;;;;48.63;24.85;;;102.60;2227.20;;;;;;5055132;28;20037;-76
2023/01/28 02:01:28;;;;;;;49.58;23.95;;;102.50;2227.20;;;;;;5055081;28;20416;-76
2023/01/28 02:04:31;;;;;;;61.08;27.40;;;102.50;2227.20;;;;;;5044293;28;20061;-76
2023/01/28 02:07:00;;;;;;;52.53;26.05;;;102.50;2227.20;;;;;;5044876;28;20107;-76
2023/01/28 02:09:31;;;;;;;62.25;28.85;;;102.70;2227.20;;;;;;5041334;28;20017;-76
2023/01/28 02:12:26;;;;;;;55.22;29.45;;;102.60;2227.20;;;;;;5054450;28;20493;-76
2023/01/28 02:15:12;;;;;;;53.20;27.83;;;102.60;2227.20;;;;;;5052241;28;20085;-76
2023/01/28 02:17:39;;;;;;;50.97;25.75;;;102.40;2227.20;;;;;;5054763;28;20025;-77
2023/01/28 02:20:08;;;;;;;52.70;26.42;;;102.40;2227.20;;;;;;5072559;28;20082;-76
2023/01/28 02:22:37;;;;;;;46.38;24.30;;;102.50;2227.20;;;;;;5054592;28;20131;-78
2023/01/28 02:25:17;;;;;;;53.33;24.52;;;102.40;2227.20;;;;;;5054949;28;20064;-76
2023/01/28 02:28:10;;;;;;;54.90;27.05;;;102.40;2227.20;;;;;;5041865;28;20035;-76
2023/01/28 02:30:41;;;;;;;49.58;25.50;;;77.70;2227.20;;;;;;5054551;28;20027;-76
2023/01/28 02:33:17;;;;;;;49.95;24.30;;;102.50;2227.20;;;;;;5042880;28;20025;-75
2023/01/28 02:35:52;;;;;;;46.95;21.05;;;102.40;2227.20;;;;;;5052677;28;20031;-76
2023/01/28 02:38:36;;;;;;;53.53;25.15;;;77.70;2227.20;;;;;;5049404;28;20052;-76
2023/01/28 02:41:11;;;;;;;45.63;23.38;;;102.40;2227.20;;;;;;5054775;28;20462;-76
2023/01/28 02:43:45;;;;;;;42.55;20.88;;;77.60;2227.20;;;;;;5054656;28;20024;-76
2023/01/28 02:48:59;;;;;;;47.47;21.83;;;77.50;2227.20;;;;;;5073140;28;20094;-76
2023/01/28 02:51:51;;;;;;;47.33;22.35;;;77.50;2227.20;;;;;;5073058;28;20061;-76
2023/01/28 02:54:22;;;;;;;41.88;21.17;;;77.50;2227.20;;;;;;4968146;28;20151;-77
2023/01/28 02:57:06;;;;;;;48.03;23.15;;;77.50;2227.20;;;;;;4958958;28;20031;-76
2023/01/28 02:59:57;;;;;;;47.72;23.40;;;77.40;2227.20;;;;;;4962385;28;20520;-76
2023/01/28 03:02:35;;;;;;;43.65;22.13;;;77.30;2227.20;;;;;;4969925;28;20042;-76
2023/01/28 03:05:12;;;;;;;45.00;22.02;;;77.30;2227.20;;;;;;4974960;28;20067;-76
2023/01/28 03:07:38;;;;;;;42.80;21.60;;;77.30;2227.20;;;;;;4975073;28;20023;-76
2023/01/28 03:10:10;;;;;;;46.13;22.17;;;77.30;2227.20;;;;;;4975273;28;20490;-76
2023/01/28 03:39:07;;;;;;;44.97;21.92;;;77.30;2227.20;;;;;;5063888;28;20036;-76
2023/01/28 03:41:32;;;;;;;;;;;77.40;2227.20;;;;;;5057377;28;20401;-76
2023/01/28 03:46:42;;;;;;;44.72;20.17;;;77.20;2227.20;;;;;;5055043;28;20028;-77
2023/01/28 03:49:08;;;;;;;;;;;77.20;2227.20;;;;;;5037811;28;20024;-77
2023/01/28 03:51:33;;;;;;;41.15;18.67;;;77.20;2227.20;;;;;;5041053;28;19904;-77
2023/01/28 03:53:59;;;;;;;;;;;77.00;2227.20;;;;;;5049221;28;20106;-76
2023/01/28 03:56:25;;;;;;;39.72;19.33;;;77.20;2227.20;;;;;;5057063;28;19944;-76
2023/01/28 03:58:53;;;;;;;46.03;21.25;;;77.10;2227.20;;;;;;5065379;28;20032;-79
2023/01/28 04:01:19;;;;;;;45.55;20.52;;;77.20;2227.20;;;;;;5052930;28;20064;-76
2023/01/28 04:03:45;;;;;;;38.47;20.27;;;77.20;2227.20;;;;;;5056882;28;20032;-76
2023/01/28 04:06:11;;;;;;;;;;;77.20;2227.20;;;;;;5056929;28;20410;-77
2023/01/28 04:08:36;;;;;;;51.30;21.83;;;77.20;2227.20;;;;;;5056782;28;19993;-76
2023/01/28 04:11:14;;;;;;;;;;;77.20;2227.20;;;;;;5057070;28;20051;-76
2023/01/28 04:13:44;;;;;;;35.83;15.65;;;77.10;2227.20;;;;;;5056647;28;19905;-76
2023/01/28 04:16:15;;;;;;;43.40;20.77;;;77.10;2227.20;;;;;;5074302;28;20017;-76
2023/01/28 04:18:41;;;;;;;49.40;21.80;;;77.10;2227.20;;;;;;5056824;28;20028;-76
2023/01/28 04:21:07;;;;;;;47.40;21.88;;;77.10;2227.20;;;;;;5050818;28;20031;-76
2023/01/28 04:23:32;;;;;;;;;;;77.10;1868.80;;;;;;5049233;28;20131;-77
2023/01/28 04:25:58;;;;;;;43.03;21.73;;;77.20;2227.20;;;;;;5050673;28;19909;-75
2023/01/28 04:28:24;;;;;;;;;;;77.20;2227.20;;;;;;5037299;28;20027;-77
2023/01/28 04:30:51;;;;;;;49.13;21.35;;;77.20;2227.20;;;;;;5041959;28;20415;-77
2023/01/28 04:33:17;;;;;;;46.30;24.50;;;77.20;2227.20;;;;;;5056535;28;20025;-78
2023/01/28 04:35:42;;;;;;;;;;;77.30;2227.20;;;;;;5074509;28;20028;-77
2023/01/28 04:38:08;;;;;;;54.97;23.42;;;77.30;2227.20;;;;;;5043305;28;19905;-76
2023/01/28 04:40:34;;;;;;;;;;;77.30;2227.20;;;;;;5042419;28;20052;-74
2023/01/28 04:42:59;;;;;;;47.53;21.90;;;77.40;2227.20;;;;;;5074104;28;20320;-78
2023/01/28 04:45:25;;;;;;;;;;;77.20;2227.20;;;;;;5056139;28;20036;-76
2023/01/28 04:47:51;;;;;;;40.33;20.27;;;77.20;2227.20;;;;;;5056368;28;19904;-76
2023/01/28 04:50:16;;;;;;;;;;;77.20;2227.20;;;;;;5056510;28;20385;-76
2023/01/28 04:52:42;;;;;;;48.38;22.33;;;77.20;2227.20;;;;;;5055531;28;19922;-76
2023/01/28 04:55:08;;;;;;;;;;;77.20;2227.20;;;;;;5060085;28;20032;-75
2023/01/28 04:57:34;;;;;;;48.88;22.90;;;77.20;2227.20;;;;;;5043895;28;19905;-76
2023/01/28 04:59:59;;;;;;;;;;;77.00;2227.20;;;;;;5054772;28;20020;-76
2023/01/28 05:02:25;;;;;;;48.72;23.17;;;77.20;2227.20;;;;;;5055480;28;19912;-76
2023/01/28 05:04:51;;;;;;;;;;;77.10;2227.20;;;;;;5042832;28;20078;-76
2023/01/28 05:07:16;;;;;;;49.25;22.67;;;77.20;2227.20;;;;;;5043304;28;19911;-77
2023/01/28 05:09:42;;;;;;;;;;;77.10;2227.20;;;;;;5041010;28;20024;-76
2023/01/28 05:12:08;;;;;;;55.03;24.58;;;77.20;2227.20;;;;;;5073171;28;19952;-76
2023/01/28 05:14:33;;;;;;;;;;;77.10;2227.20;;;;;;5073190;28;20099;-77
2023/01/28 05:16:59;;;;;;;62.22;26.15;;;77.20;2227.20;;;;;;5055644;28;20412;-76
2023/01/28 05:19:24;;;;;;;;;;;77.30;2227.20;;;;;;5055411;28;20115;-76
2023/01/28 05:21:50;;;;;;;57.50;26.35;;;77.50;2227.20;;;;;;5073162;28;19919;-76
2023/01/28 05:24:16;;;;;;;;;;;77.50;2227.20;;;;;;5073411;28;20025;-76
2023/01/28 05:26:41;;;;;;;58.53;26.50;;;77.50;2227.20;;;;;;5073090;28;19904;-77
2023/01/28 05:29:07;;;;;;;;;;;77.40;2227.20;;;;;;5055138;28;20112;-76
2023/01/28 05:31:33;;;;;;;57.05;25.85;;;77.40;2227.20;;;;;;5072685;28;19999;-76
2023/01/28 05:33:58;;;;;;;;;;;77.40;2227.20;;;;;;5054855;28;20024;-76
2023/01/28 05:36:24;;;;;;;59.05;26.67;;;77.60;2227.20;;;;;;5054988;28;19904;-76
2023/01/28 05:38:50;;;;;;;;;;;77.60;2227.20;;;;;;5055857;28;20378;-76
2023/01/28 05:41:16;;;;;;;58.15;26.92;;;77.40;2227.20;;;;;;5073333;28;19950;-76
2023/01/28 05:43:41;;;;;;;;;;;77.50;2227.20;;;;;;5055587;28;20028;-77
2023/01/28 05:46:07;;;;;;;47.22;21.42;;;77.50;2227.20;;;;;;5054934;28;19908;-77
2023/01/28 05:48:32;;;;;;;;;;;77.40;2227.20;;;;;;5055005;28;20020;-76
2023/01/28 05:50:58;;;;;;;53.45;23.55;;;77.40;2227.20;;;;;;5052415;28;19924;-76
2023/01/28 05:53:24;;;;;;;;;;;77.30;2227.20;;;;;;5052896;28;20064;-76
2023/01/28 05:55:52;;;;;;;52.55;22.38;;;77.40;2227.20;;;;;;5041683;28;19905;-76
2023/01/28 05:58:18;;;;;;;57.08;23.27;;;77.40;2227.20;;;;;;5031993;28;20025;-78
2023/01/28 06:00:44;;;;;;;46.00;23.73;;;77.30;2227.20;;;;;;5044743;28;20021;-79
2023/01/28 06:03:09;;;;;;;;;;;77.20;2227.20;;;;;;5053122;28;20044;-77
2023/01/28 06:05:35;;;;;;;49.85;23.10;;;77.40;2227.20;;;;;;5051182;28;19934;-76
2023/01/28 06:08:01;;;;;;;;;;;77.40;2227.20;;;;;;5052964;28;20029;-79
2023/01/28 06:10:26;;;;;;;52.70;23.40;;;77.60;2227.20;;;;;;5052857;28;19908;-76
2023/01/28 06:12:52;;;;;;;;;;;77.40;2227.20;;;;;;5051728;28;20505;-78
2023/01/28 06:15:17;;;;;;;48.92;23.05;;;77.40;2227.20;;;;;;5051642;28;20321;-76
2023/01/28 06:17:43;;;;;;;;;;;77.40;2227.20;;;;;;5051634;28;20445;-78
2023/01/28 06:20:09;;;;;;;50.05;21.80;;;77.40;2227.20;;;;;;5051814;28;19912;-76
2023/01/28 06:22:35;;;;;;;57.45;23.73;;;77.40;2227.20;;;;;;5042956;28;20076;-77
2023/01/28 06:25:01;;;;;;;;;;;77.40;2227.20;;;;;;5054324;28;20052;-77
2023/01/28 06:27:27;;;;;;;47.63;23.55;;;77.40;2227.20;;;;;;5055114;28;19904;-76
2023/01/28 06:29:52;;;;;;;;;;;77.40;2227.20;;;;;;5055949;28;20056;-77
2023/01/28 06:32:18;;;;;;;50.90;23.80;;;77.60;2227.20;;;;;;5056509;28;19905;-77
2023/01/28 06:34:43;;;;;;;;;;;77.50;2227.20;;;;;;5055809;28;20021;-76
2023/01/28 06:37:12;;;;;;;52.47;23.98;;;77.40;2227.20;;;;;;5048785;28;19936;-76
2023/01/28 06:39:38;;;;;;;52.35;24.40;;;77.40;2227.20;;;;;;5044451;28;20029;-76
2023/01/28 06:42:03;;;;;;;;;;;77.40;2227.20;;;;;;5043666;28;20040;-75
2023/01/28 06:44:29;;;;;;;48.88;23.45;;;77.40;2227.20;;;;;;5053759;28;19913;-77
2023/01/28 06:46:54;;;;;;;;;;;77.30;2227.20;;;;;;5037499;28;20471;-75
2023/01/28 06:49:20;;;;;;;51.20;23.35;;;77.40;2227.20;;;;;;5054470;28;19908;-76
2023/01/28 06:51:46;;;;;;;;;;;77.30;2227.20;;;;;;5046044;28;20063;-76
2023/01/28 06:54:12;;;;;;;51.28;24.23;;;77.40;2227.20;;;;;;5048495;28;20386;-76
2023/01/28 06:56:37;;;;;;;;;;;77.50;2227.20;;;;;;5045017;28;20158;-76
2023/01/28 06:59:03;;;;;;;49.60;24.20;;;77.40;2227.20;;;;;;5053711;28;20355;-76
2023/01/28 07:01:29;;;;;;;;;;;77.60;2227.20;;;;;;5049735;28;20041;-76
2023/01/28 07:03:55;;;;;;;55.63;25.40;;;77.50;2227.20;;;;;;5046057;28;20289;-76
2023/01/28 07:06:21;;;;;;;54.97;24.73;;;77.40;2227.20;;;;;;5049406;28;20033;-77
2023/01/28 07:08:47;;;;;;;;;;;77.40;2227.20;;;;;;5040895;28;20030;-76
2023/01/28 07:11:12;;;;;;;53.00;23.83;;;77.60;2227.20;;;;;;5047320;28;19999;-76
2023/01/28 07:13:38;;;;;;;;;;;77.60;2227.20;;;;;;5043295;28;20029;-76
2023/01/28 07:16:04;;;;;;;52.47;24.17;;;77.60;2227.20;;;;;;5050496;28;19912;-75
2023/01/28 07:18:29;;;;;;;;;;;77.60;2227.20;;;;;;5041857;28;20083;-75
2023/01/28 07:20:55;;;;;;;58.83;26.48;;;77.60;2227.20;;;;;;5042134;28;19909;-75
2023/01/28 07:23:21;;;;;;;;;;;77.60;2227.20;;;;;;5039231;28;20128;-76
2023/01/28 07:25:47;;;;;;;55.85;24.75;;;77.60;2227.20;;;;;;5043447;28;19909;-75
2023/01/28 07:28:13;;;;;;;;;;;77.40;2227.20;;;;;;5046679;28;20033;-75
2023/01/28 07:30:38;;;;;;;55.47;24.52;;;77.60;2227.20;;;;;;5047568;28;19915;-75
2023/01/28 07:33:04;;;;;;;;;;;77.70;2227.20;;;;;;5042061;28;20048;-75
2023/01/28 07:35:31;;;;;;;51.80;24.08;;;102.40;2227.20;;;;;;5044689;28;19904;-75
2023/01/28 07:37:59;;;;;;;52.65;27.30;;;77.60;2227.20;;;;;;5049369;28;20028;-75
2023/01/28 07:40:25;;;;;;;57.05;25.88;;;102.40;2227.20;;;;;;5047304;28;20048;-75
2023/01/28 07:42:53;;;;;;;56.05;27.73;;;102.40;2227.20;;;;;;5045745;28;20530;-75
2023/01/28 07:45:19;;;;;;;69.90;31.08;;;77.70;2227.20;;;;;;5049395;28;20025;-77
2023/01/28 07:47:51;;;;;;;;;;;77.70;2227.20;;;;;;5044734;28;20032;-76
2023/01/28 07:50:17;;;;;;;61.80;25.70;;;77.70;2227.20;;;;;;5037774;28;20058;-77
2023/01/28 07:52:44;;;;;;;;;;;77.60;2227.20;;;;;;5042265;28;21002;-75
2023/01/28 07:55:14;;;;;;;45.50;22.08;;;77.50;2227.20;;;;;;5040515;28;20385;-77
2023/01/28 07:57:50;;;;;;;63.55;28.27;;;77.60;2227.20;;;;;;5047853;28;20033;-76
2023/01/28 08:00:16;;;;;;;50.63;23.45;;;77.60;2227.20;;;;;;5038219;28;20053;-77
2023/01/28 08:02:45;;;;;;;57.58;26.98;;;77.60;2227.20;;;;;;5037862;28;20068;-77
2023/01/28 08:05:10;;;;;;;73.32;34.03;;;77.70;2227.20;;;;;;5038853;28;20048;-76
2023/01/28 08:07:36;;;;;;;;;;;77.60;2227.20;;;;;;5046573;28;20029;-76
2023/01/28 08:10:02;;;;;;;74.20;31.63;;;77.70;2227.20;;;;;;5047186;28;19908;-78
2023/01/28 08:12:27;;;;;;;;;;;77.70;2227.20;;;;;;5041640;28;20032;-78
2023/01/28 08:14:53;;;;;;;63.00;27.45;;;77.60;2227.20;;;;;;5052741;28;20290;-79
2023/01/28 08:17:19;;;;;;;;;;;77.50;2227.20;;;;;;5039313;28;20085;-78
2023/01/28 08:19:44;;;;;;;55.75;27.05;;;77.50;2227.20;;;;;;5064379;28;19956;-82
2023/01/28 08:22:10;;;;;;;;;;;77.70;2227.20;;;;;;5047294;28;20036;-80
2023/01/28 08:24:35;;;;;;;52.97;25.65;;;77.70;2227.20;;;;;;5037982;28;19913;-81
2023/01/28 08:27:01;;;;;;;;;;;77.60;2227.20;;;;;;5045585;28;20027;-80
2023/01/28 08:29:26;;;;;;;57.17;26.20;;;77.50;2227.20;;;;;;5047531;28;19917;-81
2023/01/28 08:31:52;;;;;;;;;;;77.50;2227.20;;;;;;5057043;28;20109;-80
2023/01/28 08:34:18;;;;;;;60.72;25.85;;;77.60;2227.20;;;;;;5046537;28;19915;-79
2023/01/28 08:36:43;;;;;;;;;;;77.60;2227.20;;;;;;5051418;28;20021;-77
2023/01/28 08:39:09;;;;;;;60.40;25.83;;;77.60;2227.20;;;;;;5050583;28;19923;-78
2023/01/28 08:41:34;;;;;;;;;;;77.70;2227.20;;;;;;5046500;28;20029;-77
2023/01/28 08:44:00;;;;;;;56.63;26.23;;;77.70;2227.20;;;;;;5052549;28;20412;-76
2023/01/28 08:46:26;;;;;;;;;;;77.50;2227.20;;;;;;5049784;28;20016;-78
2023/01/28 08:48:51;;;;;;;55.53;24.85;;;77.60;2227.20;;;;;;5062218;28;19954;-77
2023/01/28 08:51:17;;;;;;;;;;;77.60;2227.20;;;;;;5040468;28;20032;-79
2023/01/28 08:53:43;;;;;;;55.08;25.92;;;77.60;2227.20;;;;;;5040713;28;19920;-79
2023/01/28 08:56:08;;;;;;;;;;;77.60;2227.20;;;;;;5046324;28;20052;-78
2023/01/28 08:58:34;;;;;;;59.00;24.80;;;77.60;2227.20;;;;;;5062398;28;20370;-79
2023/01/28 09:01:04;;;;;;;;;;;77.70;2227.20;;;;;;5038336;28;20061;-76
2023/01/28 09:03:29;;;;;;;62.78;25.77;;;77.60;2227.20;;;;;;5047517;28;20019;-79
2023/01/28 09:05:58;;;;;;;;;;;77.60;2227.20;;;;;;5051324;28;21450;-77
2023/01/28 09:08:24;;;;;;;60.92;28.05;;;77.70;2227.20;;;;;;5046030;28;19931;-77
2023/01/28 09:10:53;;;;;;;;;;;77.70;2227.20;;;;;;5046410;28;20020;-76
2023/01/28 09:13:19;;;;;;;60.40;25.55;;;77.70;2227.20;;;;;;5046120;28;19916;-77
2023/01/28 09:15:44;;;;;;;;;;;77.70;2227.20;;;;;;5042149;28;20029;-77
2023/01/28 09:18:10;;;;;;;56.58;26.23;;;77.60;2227.20;;;;;;5059058;28;19909;-76
2023/01/28 09:20:36;;;;;;;;;;;77.60;2227.20;;;;;;5046779;28;20032;-75
2023/01/28 09:23:03;;;;;;;64.78;28.23;;;77.60;2227.20;;;;;;5052596;28;19917;-76
2023/01/28 09:25:29;;;;;;;62.90;27.92;;;77.60;2227.20;;;;;;5068199;28;20074;-76
2023/01/28 09:27:54;;;;;;;;;;;77.70;2227.20;;;;;;5066790;28;20250;-76
2023/01/28 09:30:20;;;;;;;65.53;29.65;;;77.70;2227.20;;;;;;5044656;28;19905;-77
2023/01/28 09:32:48;;;;;;;;;;;77.70;2227.20;;;;;;5041852;28;20035;-75
2023/01/28 09:35:15;;;;;;;71.13;29.88;;;102.40;2227.20;;;;;;5046492;28;19909;-76
2023/01/28 09:37:41;;;;;;;68.55;30.77;;;102.40;2227.20;;;;;;5050821;28;20025;-78
2023/01/28 09:40:07;;;;;;;;;;;102.40;2227.20;;;;;;5048154;28;20029;-76
2023/01/28 09:42:49;;;;;;;57.97;28.20;;;102.40;2227.20;;;;;;5043892;28;19917;-76
2023/01/28 09:45:31;;;;;;;68.00;31.10;;;102.40;2227.20;;;;;;5056371;28;20068;-77
2023/01/28 09:48:00;;;;;;;64.00;28.27;;;102.40;2227.20;;;;;;5049905;28;20534;-77
2023/01/28 09:50:33;;;;;;;71.10;30.60;;;102.50;2227.20;;;;;;5040171;28;20041;-76
2023/01/28 09:53:05;;;;;;;64.57;29.88;;;102.60;2227.20;;;;;;5062052;28;20110;-77
2023/01/28 09:55:35;;;;;;;77.88;34.65;;;102.60;2227.20;;;;;;5042903;28;20081;-77
2023/01/28 09:58:04;;;;;;;83.45;36.63;;;102.60;2227.20;;;;;;5044646;28;20032;-76
2023/01/28 10:00:49;;;;;;;64.55;29.35;;;102.60;2227.20;;;;;;5063875;28;20601;-75
2023/01/28 10:03:18;;;;;;;58.88;29.17;;;102.70;2227.20;;;;;;5045276;28;20097;-75
2023/01/28 10:05:55;;;;;;;69.40;32.95;;;102.60;2227.20;;;;;;5052830;28;20035;-74
2023/01/28 10:08:43;;;;;;;91.50;40.13;;;102.70;2227.20;;;;;;5043107;28;20039;-77
2023/01/28 10:11:36;;;;;;;170.40;53.55;;;102.60;2227.20;;;;;;5047861;28;20493;-75
2023/01/28 10:14:17;;;;;;;108.78;43.10;;;102.80;2227.20;;;;;;5042608;28;20029;-75
2023/01/28 10:16:57;;;;;;;114.53;48.28;;;102.60;2227.20;;;;;;5060882;28;20025;-74
2023/01/28 10:19:36;;;;;;;88.53;39.90;;;102.70;2227.20;;;;;;5049040;28;20044;-74
2023/01/28 10:22:08;;;;;;;94.90;39.70;;;102.80;2227.20;;;;;;5058373;28;20055;-74
2023/01/28 10:24:40;;;;;;;96.65;42.22;;;102.80;2227.20;;;;;;5050779;28;20037;-75
2023/01/28 10:27:18;;;;;;;98.07;38.45;;;102.80;2227.20;;;;;;5068816;28;20025;-75
2023/01/28 10:29:46;;;;;;;78.00;30.75;;;102.80;2227.20;;;;;;5049430;28;20032;-74
2023/01/28 10:32:30;;;;;;;89.75;37.22;;;102.60;2227.20;;;;;;5052613;28;20136;-74
2023/01/28 10:34:58;;;;;;;82.03;34.10;;;102.60;2227.20;;;;;;5069179;28;20031;-76
2023/01/28 10:37:24;;;;;;;90.25;35.65;;;102.60;2227.20;;;;;;5049137;28;20037;-75
2023/01/28 10:39:53;;;;;;;;;;;102.50;2227.20;;;;;;5054080;28;20028;-75
2023/01/28 10:42:29;;;;;;;80.93;34.67;;;102.70;2227.20;;;;;;5051221;28;20374;-74
2023/01/28 10:45:18;;;;;;;83.13;35.10;;;102.70;2227.20;;;;;;5062439;28;20019;-75
2023/01/28 10:47:49;;;;;;;83.68;37.17;;;102.90;2227.20;;;;;;5063460;28;20521;-74
2023/01/28 10:50:27;;;;;;;96.28;39.78;;;103.00;2227.20;;;;;;5046750;28;20091;-74
2023/01/28 10:52:58;;;;;;;94.82;40.75;;;103.00;2227.20;;;;;;5050480;28;20045;-74
2023/01/28 10:55:34;;;;;;;89.55;40.45;;;103.00;2227.20;;;;;;5049798;28;20116;-74
2023/01/28 10:58:03;;;;;;;86.68;38.35;;;103.00;2227.20;;;;;;5058973;28;20086;-74
2023/01/28 11:00:33;;;;;;;76.88;34.13;;;102.90;2227.20;;;;;;5052568;28;20029;-75
2023/01/28 11:02:59;;;;;;;77.63;34.83;;;102.80;2227.20;;;;;;5047048;28;20040;-76
2023/01/28 11:05:26;;;;;;;;;;;102.70;2227.20;;;;;;5045260;28;20024;-75
2023/01/28 11:08:14;;;;;;;70.50;28.30;;;102.80;2227.20;;;;;;5052940;28;19909;-75
2023/01/28 11:10:40;;;;;;;83.93;39.45;;;128.00;2252.80;;;;;;5042008;28;20484;-74
2023/01/28 11:13:17;;;;;;;84.30;38.72;;;102.80;2227.20;;;;;;5048259;28;20033;-74
2023/01/28 11:16:00;;;;;;;;;;;103.00;2227.20;;;;;;5050029;28;20054;-74
2023/01/28 11:18:33;;;;;;;89.05;39.63;;;103.00;2227.20;;;;;;5064416;28;19916;-74
2023/01/28 11:21:25;;;;;;;89.13;37.63;;;103.00;2227.20;;;;;;5052008;28;20040;-74
2023/01/28 11:24:03;;;;;;;75.70;33.33;;;103.00;2227.20;;;;;;4954714;28;20151;-75
2023/01/28 11:26:36;;;;;;;71.65;33.97;;;103.10;2227.20;;;;;;4972616;28;20041;-74
2023/01/28 11:29:03;;;;;;;69.20;31.77;;;103.20;2227.20;;;;;;4973497;28;20066;-74
2023/01/28 11:31:34;;;;;;;67.07;30.63;;;103.30;2227.20;;;;;;4973612;28;20026;-74
2023/01/28 11:34:03;;;;;;;64.72;29.33;;;103.30;2227.20;;;;;;4973754;28;20135;-76
2023/01/28 11:36:33;;;;;;;64.13;31.90;;;103.30;2227.20;;;;;;4972997;28;20054;-76
2023/01/28 11:39:04;;;;;;;63.65;31.70;;;128.00;2252.80;;;;;;4973731;28;20167;-76
2023/01/28 11:41:35;;;;;;;65.95;29.15;;;103.30;2227.20;;;;;;4974033;28;20473;-75
2023/01/28 11:44:09;;;;;;;58.47;26.67;;;103.30;2227.20;;;;;;4976500;28;20498;-76
2023/01/28 11:47:09;;;;;;;58.10;26.50;;;103.20;2227.20;;;;;;4952118;28;20030;-77
2023/01/28 11:50:01;;;;;;;64.57;28.65;;;103.20;2227.20;;;;;;4957609;28;20053;-80
2023/01/28 11:52:50;;;;;;;58.50;28.88;;;103.20;2227.20;;;;;;4973141;28;20065;-75
2023/01/28 11:55:46;;;;;;;64.35;29.30;;;103.10;2227.20;;;;;;4973079;28;20125;-75
2023/01/28 11:58:33;;;;;;;62.15;28.70;;;103.10;2227.20;;;;;;4956740;28;20027;-75
2023/01/28 12:01:13;;;;;;;61.83;28.70;;;103.10;2227.20;;;;;;5024283;28;20040;-76
2023/01/28 12:03:42;;;;;;;61.63;27.85;;;103.20;2227.20;;;;;;5047203;28;20033;-75
2023/01/28 12:06:29;;;;;;;66.35;30.35;;;103.20;2227.20;;;;;;5039189;28;20032;-76
2023/01/28 12:09:09;;;;;;;58.25;27.85;;;103.00;2227.20;;;;;;5065874;28;20020;-77
2023/01/28 12:12:10;;;;;;;64.60;29.25;;;102.90;2227.20;;;;;;5063610;28;20116;-76
2023/01/28 12:14:42;;;;;;;61.35;30.17;;;103.00;2227.20;;;;;;5068039;28;20454;-76
2023/01/28 12:17:20;;;;;;;67.05;29.17;;;103.10;2227.20;;;;;;5066690;28;20024;-76
2023/01/28 12:20:04;;;;;;;63.65;30.05;;;103.20;2227.20;;;;;;5051245;28;20041;-75
2023/01/28 12:22:58;;;;;;;62.22;30.98;;;103.20;2227.20;;;;;;5044621;28;20402;-76
2023/01/28 12:25:51;;;;;;;66.95;30.52;;;103.20;2227.20;;;;;;5056208;28;20048;-75
2023/01/28 12:28:29;;;;;;;65.10;30.88;;;103.20;2227.20;;;;;;5060489;28;20033;-76
2023/01/28 12:31:26;;;;;;;65.28;30.30;;;103.10;2227.20;;;;;;5057600;28;20486;-76
2023/01/28 12:34:20;;;;;;;51.00;23.70;;;103.20;2227.20;;;;;;5055942;28;20066;-76
2023/01/28 12:36:54;;;;;;;69.22;32.13;;;103.10;2227.20;;;;;;5058977;28;20151;-76
2023/01/28 12:39:58;;;;;;;92.32;41.67;;;103.00;2227.20;;;;;;5052179;28;20025;-75
2023/01/28 12:42:36;;;;;;;78.30;35.70;;;103.00;2227.20;;;;;;5063388;28;20084;-75
2023/01/28 12:45:22;;;;;;;66.55;32.33;;;103.20;2227.20;;;;;;5048322;28;20123;-75
2023/01/28 12:47:55;;;;;;;77.95;33.38;;;103.10;2227.20;;;;;;5058534;28;20348;-75
2023/01/28 12:50:30;;;;;;;60.72;30.13;;;103.20;2227.20;;;;;;5069796;28;20024;-75
2023/01/28 12:53:08;;;;;;;57.78;29.88;;;103.10;2227.20;;;;;;5066883;28;20548;-76
2023/01/28 12:55:45;;;;;;;58.88;30.08;;;103.20;2227.20;;;;;;5048600;28;20029;-75
2023/01/28 12:58:30;;;;;;;64.03;31.17;;;103.10;2227.20;;;;;;5041082;28;20463;-78
2023/01/28 13:01:02;;;;;;;67.90;32.35;;;103.20;2227.20;;;;;;5039668;28;20029;-75
2023/01/28 13:03:55;;;;;;;73.13;34.22;;;103.10;2227.20;;;;;;5050778;28;20040;-77
2023/01/28 13:06:30;;;;;;;65.55;33.00;;;103.20;2227.20;;;;;;4955817;28;20412;-78
2023/01/28 13:09:02;;;;;;;66.63;31.77;;;103.10;2227.20;;;;;;4970470;28;20039;-75
2023/01/28 13:11:34;;;;;;;66.13;32.33;;;103.10;2227.20;;;;;;4954865;28;20057;-75
2023/01/28 13:14:00;;;;;;;67.18;33.80;;;103.20;2227.20;;;;;;4954848;28;20034;-76
2023/01/28 13:16:26;;;;;;;68.90;32.80;;;103.30;2227.20;;;;;;4955566;28;20420;-77